Time;durP1;ratioP1;P1;durP2;ratioP2;P2;SDS_P1;SDS_P2;PMS_P1;PMS_P2;Temp;Humidity;BMP_temperature;BMP_pressure;BME280_temperature;BME280_humidity;BME280_pressure;Samples;Min_cycle;Max_cycle;Signal;HPM_P1;HPM_P2
2022/01/05 00:01:10;;;;;;;190.67;91.70;;;;;;;4.30;100.00;94177.03;5065396;28;20205;-82
2022/01/05 00:03:38;;;;;;;175.43;83.57;;;;;;;4.31;100.00;94174.25;5071205;28;20213;-82
2022/01/05 00:06:07;;;;;;;144.53;68.83;;;;;;;4.23;100.00;94182.13;5065138;28;20313;-83
2022/01/05 00:08:36;;;;;;;134.97;60.27;;;;;;;4.26;100.00;94179.19;5072691;28;20251;-82
2022/01/05 00:11:06;;;;;;;123.77;60.50;;;;;;;4.30;100.00;94167.50;5065974;28;20213;-82
2022/01/05 00:13:35;;;;;;;163.77;78.17;;;;;;;4.27;100.00;94173.03;5070044;28;20240;-81
2022/01/05 00:16:03;;;;;;;165.00;80.07;;;;;;;4.35;100.00;94172.09;5072862;28;20254;-81
2022/01/05 00:18:32;;;;;;;152.27;73.73;;;;;;;4.38;100.00;94169.94;5064922;28;20229;-81
2022/01/05 00:21:03;;;;;;;158.27;74.47;;;;;;;4.37;100.00;94170.91;5065542;28;20210;-82
2022/01/05 00:23:34;;;;;;;162.53;75.40;;;;;;;4.42;100.00;94180.63;5065365;28;20205;-81
2022/01/05 00:26:03;;;;;;;151.33;74.27;;;;;;;4.42;100.00;94173.69;5071878;28;20217;-82
2022/01/05 00:28:32;;;;;;;161.13;76.33;;;;;;;4.40;100.00;94172.31;5071641;28;20205;-83
2022/01/05 00:31:00;;;;;;;157.67;74.50;;;;;;;4.38;100.00;94164.00;5070601;28;20323;-82
2022/01/05 00:33:29;;;;;;;146.43;73.03;;;;;;;4.40;100.00;94170.53;5066478;28;20626;-82
2022/01/05 00:35:57;;;;;;;152.60;75.80;;;;;;;4.44;100.00;94186.38;5070898;28;20197;-81
2022/01/05 00:38:27;;;;;;;154.23;75.70;;;;;;;4.44;100.00;94182.00;5063884;28;20206;-85
2022/01/05 00:40:57;;;;;;;157.07;76.07;;;;;;;4.36;100.00;94171.91;5058561;28;20669;-82
2022/01/05 00:43:25;;;;;;;157.23;75.07;;;;;;;4.32;100.00;94170.72;5073493;28;20528;-82
2022/01/05 00:45:53;;;;;;;150.70;72.27;;;;;;;4.24;100.00;94172.66;5076207;28;20646;-82
2022/01/05 00:48:21;;;;;;;146.83;75.40;;;;;;;4.14;100.00;94173.00;5087375;28;20201;-83
2022/01/05 00:50:51;;;;;;;153.20;74.30;;;;;;;4.19;100.00;94173.22;5071769;28;20193;-83
2022/01/05 00:53:18;;;;;;;155.50;74.60;;;;;;;4.15;100.00;94159.16;5071369;28;20213;-82
2022/01/05 00:55:47;;;;;;;168.83;78.27;;;;;;;4.22;100.00;94165.13;5071051;28;20288;-82
2022/01/05 00:58:17;;;;;;;163.50;76.23;;;;;;;4.18;100.00;94153.63;5071039;28;20205;-82
2022/01/05 01:00:45;;;;;;;156.10;77.33;;;;;;;4.15;100.00;94163.50;5072206;28;20250;-82
2022/01/05 01:03:14;;;;;;;155.13;75.03;;;;;;;4.05;100.00;94139.91;5071821;28;20280;-81
2022/01/05 01:05:41;;;;;;;157.00;74.93;;;;;;;4.09;100.00;94138.56;5069318;28;20313;-80
2022/01/05 01:08:11;;;;;;;156.07;75.97;;;;;;;4.06;100.00;94139.72;5051254;28;20263;-84
2022/01/05 01:10:39;;;;;;;152.40;75.07;;;;;;;4.13;100.00;94157.78;5053635;28;20209;-83
2022/01/05 01:13:07;;;;;;;157.10;75.27;;;;;;;4.03;100.00;94162.44;5070665;28;20211;-82
2022/01/05 01:15:39;;;;;;;154.00;74.43;;;;;;;4.14;100.00;94167.06;5057601;28;20227;-82
2022/01/05 01:18:06;;;;;;;150.40;73.23;;;;;;;4.16;100.00;94149.66;5063447;28;20232;-82
2022/01/05 01:20:35;;;;;;;157.23;73.87;;;;;;;4.09;100.00;94151.41;5069455;28;20209;-83
2022/01/05 01:23:03;;;;;;;154.57;71.97;;;;;;;4.08;100.00;94157.53;5067423;28;20305;-83
2022/01/05 01:25:31;;;;;;;144.57;67.50;;;;;;;4.09;100.00;94148.84;5050421;28;20237;-82
2022/01/05 01:28:00;;;;;;;147.37;70.10;;;;;;;4.13;100.00;94150.06;5068026;28;20201;-83
2022/01/05 01:30:31;;;;;;;119.70;53.83;;;;;;;3.99;100.00;94139.69;5063303;28;20619;-79
2022/01/05 01:33:01;;;;;;;127.13;60.77;;;;;;;3.95;100.00;94153.13;5069494;28;20205;-81
2022/01/05 01:35:29;;;;;;;126.77;60.77;;;;;;;4.03;100.00;94132.41;5069771;28;20622;-80
2022/01/05 01:38:01;;;;;;;123.60;62.13;;;;;;;4.08;100.00;94139.53;5069345;28;20205;-80
2022/01/05 01:40:30;;;;;;;133.53;63.93;;;;;;;4.03;100.00;94147.81;5064775;28;20233;-80
2022/01/05 01:43:00;;;;;;;127.17;63.07;;;;;;;4.09;100.00;94141.94;5067974;28;20212;-81
2022/01/05 01:45:29;;;;;;;135.30;59.67;;;;;;;4.07;100.00;94132.81;5070326;28;20308;-80
2022/01/05 01:47:59;;;;;;;114.33;58.30;;;;;;;3.95;100.00;94130.00;5070288;28;20686;-80
2022/01/05 01:50:27;;;;;;;118.57;58.00;;;;;;;3.87;100.00;94130.13;5070744;28;20268;-80
2022/01/05 01:52:57;;;;;;;124.13;57.13;;;;;;;3.86;100.00;94124.22;5070688;28;20286;-81
2022/01/05 01:55:26;;;;;;;114.57;55.27;;;;;;;3.97;100.00;94140.88;5070572;28;20201;-81
2022/01/05 01:57:54;;;;;;;115.23;55.80;;;;;;;3.96;100.00;94136.69;5070238;28;20201;-82
2022/01/05 02:00:24;;;;;;;122.37;54.47;;;;;;;3.94;100.00;94130.97;5064066;28;20211;-81
2022/01/05 02:02:54;;;;;;;106.37;53.03;;;;;;;3.92;100.00;94122.66;5053112;28;20198;-82
2022/01/05 02:05:24;;;;;;;102.87;52.33;;;;;;;3.87;100.00;94112.94;5065450;28;20225;-81
2022/01/05 02:07:52;;;;;;;114.67;53.00;;;;;;;3.93;100.00;94132.75;5070189;28;20197;-79
2022/01/05 02:10:20;;;;;;;97.10;47.27;;;;;;;3.80;100.00;94131.88;5073974;28;20209;-82
2022/01/05 02:12:50;;;;;;;100.77;50.13;;;;;;;3.78;100.00;94123.59;5074942;28;20213;-80
2022/01/05 02:15:18;;;;;;;110.50;52.17;;;;;;;3.76;100.00;94135.81;5074755;28;20240;-79
2022/01/05 02:17:57;;;;;;;106.07;51.80;;;;;;;3.76;100.00;94126.31;5078995;28;20201;-79
2022/01/05 02:20:29;;;;;;;105.53;50.87;;;;;;;3.76;100.00;94133.25;5073476;28;20258;-80
2022/01/05 02:22:59;;;;;;;108.10;50.03;;;;;;;3.75;100.00;94129.88;5073227;28;20612;-80
2022/01/05 02:25:28;;;;;;;99.60;48.37;;;;;;;3.72;100.00;94125.09;5073565;28;20282;-80
2022/01/05 02:27:58;;;;;;;100.27;49.80;;;;;;;3.73;100.00;94123.34;5074260;28;20208;-80
2022/01/05 02:30:28;;;;;;;95.33;47.17;;;;;;;3.78;100.00;94121.78;5069562;28;20241;-80
2022/01/05 02:32:56;;;;;;;100.60;48.00;;;;;;;3.70;100.00;94119.38;5071481;28;20205;-80
2022/01/05 02:35:25;;;;;;;101.40;50.67;;;;;;;3.65;100.00;94108.06;5073534;28;20224;-80
2022/01/05 02:37:54;;;;;;;97.13;48.67;;;;;;;3.77;100.00;94114.28;5073486;28;20219;-80
2022/01/05 02:40:26;;;;;;;98.50;48.27;;;;;;;3.80;100.00;94119.03;5069191;28;20244;-80
2022/01/05 02:42:57;;;;;;;99.93;48.43;;;;;;;3.77;100.00;94115.06;5071283;28;20715;-80
2022/01/05 02:45:26;;;;;;;104.87;48.80;;;;;;;3.68;100.00;94112.84;5073027;28;20332;-80
2022/01/05 02:47:55;;;;;;;105.93;49.13;;;;;;;3.74;100.00;94115.44;5073744;28;20255;-79
2022/01/05 02:50:24;;;;;;;98.33;48.53;;;;;;;3.69;100.00;94109.31;5068372;28;20206;-84
2022/01/05 02:52:52;;;;;;;96.27;48.07;;;;;;;3.65;100.00;94102.94;5063505;28;20213;-83
2022/01/05 02:55:20;;;;;;;98.63;47.43;;;;;;;3.54;100.00;94100.91;5082772;28;20235;-83
2022/01/05 02:57:50;;;;;;;91.90;48.90;;;;;;;3.56;100.00;94096.38;5078379;28;20198;-83
2022/01/05 03:00:19;;;;;;;109.97;51.23;;;;;;;3.52;100.00;94101.06;5072283;28;20740;-83
2022/01/05 03:02:46;;;;;;;100.10;49.40;;;;;;;3.50;100.00;94104.81;5071568;28;20261;-82
2022/01/05 03:05:15;;;;;;;102.40;51.27;;;;;;;3.38;100.00;94094.28;5062593;28;20221;-82
2022/01/05 03:07:46;;;;;;;105.30;51.67;;;;;;;3.47;100.00;94105.19;5057272;28;20286;-83
2022/01/05 03:10:15;;;;;;;106.73;49.20;;;;;;;3.44;100.00;94096.09;5073007;28;20684;-83
2022/01/05 03:12:45;;;;;;;107.67;50.40;;;;;;;3.42;100.00;94092.94;5081747;28;20197;-86
2022/01/05 03:15:15;;;;;;;106.37;50.73;;;;;;;3.53;100.00;94091.59;5077897;28;20666;-79
2022/01/05 03:17:44;;;;;;;99.33;50.07;;;;;;;3.54;100.00;94096.56;5082879;28;20262;-80
2022/01/05 03:20:13;;;;;;;109.10;53.03;;;;;;;3.47;100.00;94094.91;5068938;28;20212;-79
2022/01/05 03:22:42;;;;;;;104.70;50.50;;;;;;;3.29;100.00;94087.72;5074917;28;20235;-80
2022/01/05 03:25:16;;;;;;;94.27;46.27;;;;;;;3.30;100.00;94086.72;5075358;28;20229;-79
2022/01/05 03:27:45;;;;;;;104.13;48.50;;;;;;;3.28;100.00;94091.25;5076057;28;20284;-81
2022/01/05 03:30:16;;;;;;;105.80;51.83;;;;;;;3.25;100.00;94095.00;5073053;28;20324;-79
2022/01/05 03:33:07;;;;;;;106.67;50.13;;;;;;;3.24;100.00;94101.09;5073106;28;20202;-81
2022/01/05 03:35:38;;;;;;;96.80;49.57;;;;;;;3.28;100.00;94097.19;5072941;28;20743;-80
2022/01/05 03:38:07;;;;;;;99.47;48.00;;;;;;;3.32;100.00;94089.88;5071644;28;20225;-81
2022/01/05 03:40:35;;;;;;;102.83;47.83;;;;;;;3.20;100.00;94070.88;5071948;28;20676;-80
2022/01/05 03:43:04;;;;;;;96.47;47.43;;;;;;;3.24;100.00;94072.06;5064702;28;20223;-79
2022/01/05 03:45:36;;;;;;;101.53;47.63;;;;;;;3.32;100.00;94084.75;5066674;28;20221;-80
2022/01/05 03:48:06;;;;;;;101.00;49.60;;;;;;;3.28;100.00;94081.78;5068012;28;20213;-80
2022/01/05 03:50:37;;;;;;;100.87;48.80;;;;;;;3.29;100.00;94073.09;5073333;28;20314;-80
2022/01/05 03:53:06;;;;;;;91.13;44.47;;;;;;;3.28;100.00;94093.81;5074037;28;20205;-80
2022/01/05 03:55:36;;;;;;;85.53;46.10;;;;;;;3.22;100.00;94085.09;5072858;28;20557;-79
2022/01/05 03:58:06;;;;;;;76.20;37.97;;;;;;;3.14;100.00;94097.28;5072790;28;20205;-81
2022/01/05 04:00:37;;;;;;;61.53;33.50;;;;;;;3.03;100.00;94069.56;5064238;28;21052;-81
2022/01/05 04:03:05;;;;;;;87.60;43.13;;;;;;;3.16;100.00;94087.63;5071158;28;20201;-80
2022/01/05 04:05:33;;;;;;;97.30;47.40;;;;;;;3.17;100.00;94078.94;5069165;28;20236;-83
2022/01/05 04:08:02;;;;;;;87.97;45.50;;;;;;;3.22;100.00;94077.41;5071362;28;20278;-72
2022/01/05 04:10:32;;;;;;;88.87;46.13;;;;;;;3.28;100.00;94079.22;5068966;28;20286;-72
2022/01/05 04:13:00;;;;;;;84.73;43.47;;;;;;;3.21;100.00;94070.66;5068565;28;20213;-71
2022/01/05 04:15:28;;;;;;;86.17;43.20;;;;;;;3.16;100.00;94061.94;5070902;28;20669;-72
2022/01/05 04:17:58;;;;;;;93.90;44.27;;;;;;;3.20;100.00;94076.00;5072601;28;20227;-72
2022/01/05 04:20:26;;;;;;;81.03;41.40;;;;;;;3.14;100.00;94069.06;5069203;28;20197;-72
2022/01/05 04:22:55;;;;;;;92.13;44.30;;;;;;;3.13;100.00;94070.03;5068689;28;20206;-72
2022/01/05 04:25:24;;;;;;;68.90;36.23;;;;;;;3.10;100.00;94066.06;5069995;28;20227;-71
2022/01/05 04:27:53;;;;;;;80.13;39.47;;;;;;;3.06;100.00;94062.28;5069891;28;20270;-71
2022/01/05 04:30:21;;;;;;;87.33;44.43;;;;;;;3.05;100.00;94060.69;5067702;28;20315;-71
2022/01/05 04:32:47;;;;;;;92.67;41.80;;;;;;;3.01;100.00;94061.25;5071165;28;20663;-72
2022/01/05 04:35:17;;;;;;;83.93;43.63;;;;;;;3.02;100.00;94065.41;5070426;28;20215;-72
2022/01/05 04:37:47;;;;;;;87.47;42.93;;;;;;;3.05;100.00;94070.97;5068875;28;20616;-72
2022/01/05 04:40:15;;;;;;;76.43;37.17;;;;;;;3.12;100.00;94069.22;5069116;28;20232;-72
2022/01/05 04:42:43;;;;;;;87.60;44.03;;;;;;;3.18;100.00;94065.09;5068685;28;20201;-73
2022/01/05 04:45:11;;;;;;;79.27;39.60;;;;;;;3.15;100.00;94079.13;5068201;28;20205;-73
2022/01/05 04:47:38;;;;;;;82.77;42.93;;;;;;;3.07;100.00;94079.25;5070138;28;20204;-73
2022/01/05 04:50:07;;;;;;;83.33;42.13;;;;;;;2.94;100.00;94068.13;5068734;28;20201;-72
2022/01/05 04:52:37;;;;;;;76.80;41.30;;;;;;;2.96;100.00;94079.78;5067910;28;20204;-72
2022/01/05 04:55:05;;;;;;;87.33;42.73;;;;;;;2.99;100.00;94081.16;5067832;28;20635;-74
2022/01/05 04:57:34;;;;;;;85.17;42.50;;;;;;;2.99;100.00;94081.16;5067855;28;20201;-74
2022/01/05 05:00:03;;;;;;;97.03;46.53;;;;;;;2.95;100.00;94080.75;5069337;28;20206;-73
2022/01/05 05:02:30;;;;;;;96.40;47.63;;;;;;;3.02;100.00;94084.16;5068619;28;20213;-72
2022/01/05 05:04:59;;;;;;;109.17;51.50;;;;;;;3.04;100.00;94081.41;5068335;28;20209;-73
2022/01/05 05:07:26;;;;;;;129.53;60.17;;;;;;;3.03;100.00;94096.00;5068719;28;20646;-73
2022/01/05 05:09:56;;;;;;;203.33;94.53;;;;;;;3.04;100.00;94099.38;5068845;28;20239;-71
2022/01/05 05:12:23;;;;;;;208.70;97.47;;;;;;;3.05;100.00;94083.78;5069095;28;20224;-72
2022/01/05 05:14:51;;;;;;;213.33;95.10;;;;;;;3.05;100.00;94090.69;5068504;28;20731;-74
2022/01/05 05:17:18;;;;;;;214.90;97.07;;;;;;;3.05;100.00;94099.19;5073061;28;20201;-73
2022/01/05 05:19:46;;;;;;;210.20;96.30;;;;;;;2.96;100.00;94107.19;5068101;28;20216;-72
2022/01/05 05:22:15;;;;;;;221.90;98.80;;;;;;;2.98;100.00;94110.38;5067885;28;20309;-73
2022/01/05 05:24:43;;;;;;;200.73;96.13;;;;;;;2.93;100.00;94125.53;5067914;28;20248;-74
2022/01/05 05:27:12;;;;;;;195.90;93.67;;;;;;;2.89;100.00;94111.50;5068216;28;20221;-72
2022/01/05 05:29:40;;;;;;;206.30;96.63;;;;;;;2.94;100.00;94115.09;5049588;28;20239;-71
2022/01/05 05:32:09;;;;;;;196.97;94.23;;;;;;;2.98;100.00;94110.38;5067188;28;20639;-71
2022/01/05 05:34:36;;;;;;;197.57;91.87;;;;;;;2.97;100.00;94119.84;5068461;28;20248;-73
2022/01/05 05:37:06;;;;;;;187.20;90.17;;;;;;;2.96;100.00;94109.75;5068132;28;20201;-71
2022/01/05 05:39:33;;;;;;;196.90;93.50;;;;;;;2.95;100.00;94121.78;5067875;28;20209;-74
2022/01/05 05:42:00;;;;;;;181.70;88.30;;;;;;;2.90;100.00;94108.72;5067902;28;20682;-71
2022/01/05 05:44:29;;;;;;;198.80;97.40;;;;;;;2.91;100.00;94114.66;5068305;28;20212;-72
2022/01/05 05:46:56;;;;;;;194.17;91.20;;;;;;;2.84;100.00;94109.47;5069173;28;20236;-72
2022/01/05 05:49:24;;;;;;;189.57;92.40;;;;;;;2.80;100.00;94114.16;5067935;28;20212;-72
2022/01/05 05:51:52;;;;;;;195.67;95.83;;;;;;;2.78;100.00;94117.91;5067611;28;20212;-73
2022/01/05 05:54:20;;;;;;;190.67;94.23;;;;;;;2.75;100.00;94113.94;5067935;28;20201;-73
2022/01/05 05:56:47;;;;;;;190.00;92.20;;;;;;;2.80;100.00;94110.81;5067691;28;20201;-73
2022/01/05 05:59:16;;;;;;;189.43;91.77;;;;;;;2.86;100.00;94120.34;5066754;28;20204;-73
2022/01/05 06:01:46;;;;;;;189.70;92.53;;;;;;;2.86;100.00;94116.00;5067506;28;20201;-72
2022/01/05 06:04:15;;;;;;;188.00;92.40;;;;;;;2.93;100.00;94105.00;5067495;28;20251;-71
2022/01/05 06:06:43;;;;;;;190.30;91.53;;;;;;;2.96;100.00;94120.03;5067682;28;20220;-73
2022/01/05 06:09:10;;;;;;;180.17;85.63;;;;;;;2.88;100.00;94118.41;5067795;28;20880;-72
2022/01/05 06:11:38;;;;;;;173.87;86.00;;;;;;;2.84;100.00;94112.03;5067731;28;20284;-73
2022/01/05 06:14:07;;;;;;;171.47;83.97;;;;;;;2.83;100.00;94118.13;5067615;28;20212;-73
2022/01/05 06:16:35;;;;;;;123.57;61.07;;;;;;;2.66;100.00;94109.91;5071711;28;20243;-71
2022/01/05 06:19:04;;;;;;;158.17;73.37;;;;;;;2.71;100.00;94120.38;5068359;28;20210;-71
2022/01/05 06:21:32;;;;;;;143.43;71.67;;;;;;;2.72;100.00;94118.63;5066764;28;20217;-71
2022/01/05 06:24:00;;;;;;;147.30;70.67;;;;;;;2.80;100.00;94131.31;5067131;28;20664;-72
2022/01/05 06:26:30;;;;;;;131.17;63.17;;;;;;;2.81;100.00;94126.03;5068008;28;20297;-72
2022/01/05 06:28:58;;;;;;;155.73;76.90;;;;;;;2.85;100.00;94141.84;5068150;28;20687;-72
2022/01/05 06:31:27;;;;;;;140.00;70.47;;;;;;;2.82;100.00;94140.44;5067835;28;20312;-73
2022/01/05 06:33:54;;;;;;;148.80;75.57;;;;;;;2.86;100.00;94138.28;5067344;28;20209;-72
2022/01/05 06:36:24;;;;;;;147.17;75.30;;;;;;;2.88;100.00;94128.66;5066820;28;20205;-72
2022/01/05 06:38:52;;;;;;;151.37;72.93;;;;;;;2.97;100.00;94140.38;5061337;28;20212;-72
2022/01/05 06:41:21;;;;;;;138.13;69.67;;;;;;;2.97;100.00;94142.94;5064954;28;20566;-73
2022/01/05 06:43:48;;;;;;;123.70;61.30;;;;;;;2.98;100.00;94147.09;5063773;28;20224;-72
2022/01/05 06:46:17;;;;;;;133.67;66.73;;;;;;;2.97;100.00;94149.84;5065956;28;20244;-71
2022/01/05 06:48:45;;;;;;;135.20;66.07;;;;;;;2.96;100.00;94135.44;5065869;28;20202;-71
2022/01/05 06:51:13;;;;;;;128.87;70.63;;;;;;;2.98;100.00;94139.38;5064393;28;20284;-71
2022/01/05 06:53:42;;;;;;;142.63;73.00;;;;;;;3.05;100.00;94149.72;5064910;28;20236;-71
2022/01/05 06:56:11;;;;;;;134.90;71.47;;;;;;;3.06;100.00;94135.91;5069740;28;20294;-71
2022/01/05 06:58:38;;;;;;;130.00;71.57;;;;;;;3.11;100.00;94139.53;5070345;28;20216;-71
2022/01/05 07:01:06;;;;;;;122.20;63.13;;;;;;;3.19;100.00;94136.00;5070388;28;20205;-71
2022/01/05 07:03:36;;;;;;;112.53;57.00;;;;;;;3.25;100.00;94137.84;5070733;28;20292;-71
2022/01/05 07:06:05;;;;;;;149.40;85.23;;;;;;;3.31;100.00;94134.53;5070349;28;20243;-70
2022/01/05 07:08:33;;;;;;;157.50;93.57;;;;;;;3.36;100.00;94135.56;5070132;28;20280;-72
2022/01/05 07:11:04;;;;;;;132.57;72.87;;;;;;;3.47;100.00;94134.25;5070087;28;20205;-71
2022/01/05 07:13:32;;;;;;;149.20;84.73;;;;;;;3.56;100.00;94142.59;5070509;28;20205;-71
2022/01/05 07:16:00;;;;;;;134.93;78.10;;;;;;;3.62;100.00;94134.16;5074540;28;20197;-70
2022/01/05 07:18:30;;;;;;;127.83;71.43;;;;;;;3.65;100.00;94139.69;5070365;28;20205;-72
2022/01/05 07:20:58;;;;;;;128.40;70.33;;;;;;;3.67;100.00;94140.31;5069605;28;20209;-70
2022/01/05 07:23:25;;;;;;;132.10;71.37;;;;;;;3.68;100.00;94141.09;5069438;28;20240;-72
2022/01/05 07:25:54;;;;;;;138.70;69.80;;;;;;;3.73;100.00;94146.47;5069656;28;20296;-72
2022/01/05 07:28:24;;;;;;;131.50;65.37;;;;;;;3.85;100.00;94143.19;5070170;28;20232;-72
2022/01/05 07:30:52;;;;;;;118.53;62.63;;;;;;;3.96;100.00;94144.41;5069831;28;20726;-72
2022/01/05 07:33:21;;;;;;;135.10;65.03;;;;;;;4.06;100.00;94142.31;5069365;28;20201;-70
2022/01/05 07:35:50;;;;;;;124.33;61.37;;;;;;;4.04;100.00;94146.81;5070254;28;20292;-75
2022/01/05 07:38:18;;;;;;;126.43;66.47;;;;;;;4.13;100.00;94148.25;5069188;28;20237;-71
2022/01/05 07:40:46;;;;;;;121.97;67.03;;;;;;;4.23;100.00;94147.91;5073317;28;20213;-71
2022/01/05 07:43:16;;;;;;;119.23;63.00;;;;;;;4.36;100.00;94150.53;5068558;28;20644;-71
2022/01/05 07:45:46;;;;;;;116.50;61.47;;;;;;;4.33;100.00;94150.94;5069858;28;20285;-71
2022/01/05 07:48:13;;;;;;;113.50;62.33;;;;;;;4.43;100.00;94154.72;5065049;28;20221;-71
2022/01/05 07:50:41;;;;;;;115.50;63.37;;;;;;;4.46;100.00;94159.47;5074700;28;20209;-73
2022/01/05 07:53:09;;;;;;;124.17;67.03;;;;;;;4.54;100.00;94149.00;5068580;28;20752;-74
2022/01/05 07:55:37;;;;;;;123.37;63.90;;;;;;;4.62;100.00;94147.28;5069371;28;20835;-72
2022/01/05 07:58:06;;;;;;;124.47;63.00;;;;;;;4.73;100.00;94147.50;5068764;28;20278;-74
2022/01/05 08:00:34;;;;;;;112.87;59.80;;;;;;;4.82;100.00;94150.69;5069727;28;20237;-71
2022/01/05 08:03:03;;;;;;;113.60;58.87;;;;;;;4.86;100.00;94155.22;5068727;28;20205;-71
2022/01/05 08:05:31;;;;;;;114.00;60.77;;;;;;;4.97;100.00;94151.28;5068638;28;20211;-71
2022/01/05 08:08:00;;;;;;;112.07;62.17;;;;;;;5.00;100.00;94145.75;5068257;28;20261;-72
2022/01/05 08:10:27;;;;;;;113.80;60.80;;;;;;;5.12;100.00;94167.34;5068493;28;20256;-74
2022/01/05 08:12:56;;;;;;;126.57;61.53;;;;;;;5.12;100.00;94163.00;5069026;28;20210;-71
2022/01/05 08:15:25;;;;;;;95.37;51.27;;;;;;;5.17;100.00;94156.47;5068530;28;20349;-71
2022/01/05 08:17:52;;;;;;;101.50;50.17;;;;;;;5.29;100.00;94150.53;5070839;28;20253;-71
2022/01/05 08:20:22;;;;;;;94.43;47.27;;;;;;;5.29;100.00;94157.44;5068016;28;20207;-73
2022/01/05 08:22:51;;;;;;;91.07;47.43;;;;;;;5.36;100.00;94161.63;5069282;28;20216;-80
2022/01/05 08:25:21;;;;;;;97.70;49.20;;;;;;;5.45;100.00;94152.72;5069528;28;20290;-77
2022/01/05 08:27:50;;;;;;;101.83;51.00;;;;;;;5.54;100.00;94166.19;5067862;28;20304;-77
2022/01/05 08:30:20;;;;;;;96.37;49.50;;;;;;;5.58;100.00;94152.69;5068517;28;20337;-76
2022/01/05 08:32:51;;;;;;;100.17;44.47;;;;;;;5.61;100.00;94151.50;5068521;28;20207;-76
2022/01/05 08:35:24;;;;;;;71.97;38.37;;;;;;;5.70;99.27;94151.09;5069410;28;20218;-78
2022/01/05 08:37:52;;;;;;;79.07;37.73;;;;;;;5.74;100.00;94146.34;5068814;28;20287;-77
2022/01/05 08:40:22;;;;;;;87.43;42.87;;;;;;;5.86;97.14;94156.88;5068966;28;20196;-74
2022/01/05 08:42:53;;;;;;;81.17;40.33;;;;;;;5.89;96.58;94153.91;5068126;28;20669;-76
2022/01/05 08:45:21;;;;;;;68.43;37.07;;;;;;;5.87;97.69;94158.44;5068778;28;20214;-76
2022/01/05 08:47:50;;;;;;;68.53;36.47;;;;;;;5.93;97.68;94158.44;5068894;28;20217;-77
2022/01/05 08:50:21;;;;;;;62.93;35.10;;;;;;;6.03;96.85;94160.59;5067792;28;20195;-75
2022/01/05 08:52:50;;;;;;;62.00;35.00;;;;;;;6.01;95.41;94147.91;5068334;28;20220;-75
2022/01/05 08:55:20;;;;;;;70.63;36.67;;;;;;;6.16;93.22;94165.72;5068028;28;20204;-75
2022/01/05 08:57:48;;;;;;;66.47;37.03;;;;;;;6.20;93.08;94148.84;5068938;28;20202;-74
2022/01/05 09:03:37;;;;;;;77.47;35.03;;;;;;;6.30;92.25;94149.19;5060760;28;20617;-76
2022/01/05 09:06:06;;;;;;;60.00;32.47;;;;;;;6.30;92.71;94146.63;5067469;28;20243;-74
2022/01/05 09:08:35;;;;;;;61.77;32.43;;;;;;;6.35;91.38;94139.06;5067618;28;20337;-75
2022/01/05 09:11:02;;;;;;;56.63;31.47;;;;;;;6.42;91.23;94141.63;5067596;28;20314;-75
2022/01/05 09:13:31;;;;;;;53.00;29.83;;;;;;;6.39;91.59;94140.22;5068692;28;20265;-74
2022/01/05 09:16:00;;;;;;;53.07;30.10;;;;;;;6.57;91.15;94137.78;5070881;28;20211;-74
2022/01/05 09:18:28;;;;;;;54.97;28.53;;;;;;;6.58;90.14;94134.19;5066577;28;20207;-74
2022/01/05 09:20:55;;;;;;;50.80;26.53;;;;;;;6.65;89.46;94129.78;5068260;28;20205;-75
2022/01/05 09:23:23;;;;;;;49.97;26.33;;;;;;;6.70;88.87;94121.41;5068143;28;20299;-73
2022/01/05 09:25:52;;;;;;;47.40;26.87;;;;;;;6.73;89.54;94123.59;5069127;28;20244;-74
2022/01/05 09:28:19;;;;;;;47.57;25.80;;;;;;;6.81;89.26;94116.38;5067833;28;20228;-74
2022/01/05 09:30:47;;;;;;;42.30;24.07;;;;;;;6.89;87.94;94112.78;5067885;28;20329;-74
2022/01/05 09:33:15;;;;;;;45.23;23.97;;;;;;;6.89;87.29;94099.06;5067499;28;20688;-74
2022/01/05 09:35:43;;;;;;;45.77;24.17;;;;;;;7.03;87.13;94110.91;5068103;28;20227;-74
2022/01/05 09:38:23;;;;;;;40.83;22.67;;;;;;;7.10;86.80;94109.06;5067686;28;20204;-73
2022/01/05 09:43:54;;;;;;;38.00;20.00;;;;;;;7.30;85.32;94102.72;5067198;28;20757;-74
2022/01/05 09:46:33;;;;;;;33.17;18.30;;;;;;;7.42;84.45;94102.81;5073780;28;20305;-74
2022/01/05 09:49:10;;;;;;;34.13;18.60;;;;;;;7.49;83.47;94098.41;5060188;28;20224;-73
2022/01/05 09:51:41;;;;;;;35.73;18.53;;;;;;;7.54;83.72;94092.59;5068582;28;20623;-73
2022/01/05 09:54:12;;;;;;;35.23;17.97;;;;;;;7.55;84.35;94082.03;5068237;28;20219;-73
2022/01/05 09:56:41;;;;;;;34.77;16.80;;;;;;;7.57;83.29;94087.00;5061414;28;20193;-74
2022/01/05 09:59:09;;;;;;;30.50;17.27;;;;;;;7.72;84.16;94082.28;5066818;28;20211;-74
2022/01/05 10:01:37;;;;;;;35.23;17.03;;;;;;;8.17;83.95;94078.38;5066937;28;20207;-73
2022/01/05 10:04:06;;;;;;;30.10;16.87;;;;;;;9.59;75.89;94078.38;5068085;28;20202;-74
2022/01/05 10:06:37;;;;;;;32.37;16.87;;;;;;;11.92;64.88;94083.38;5068052;28;20206;-79
2022/01/05 10:09:06;;;;;;;26.10;14.63;;;;;;;14.26;55.06;94075.66;5066221;28;20217;-78
2022/01/05 10:11:35;;;;;;;30.47;14.90;;;;;;;16.18;46.34;94083.81;5066955;28;20201;-77
2022/01/05 10:14:06;;;;;;;28.97;14.50;;;;;;;17.29;43.66;94078.06;5067291;28;20469;-77
2022/01/05 10:16:33;;;;;;;29.27;15.00;;;;;;;18.22;40.67;94072.56;5071022;28;20710;-78
2022/01/05 10:19:03;;;;;;;23.80;13.57;;;;;;;19.04;38.90;94074.78;5066529;28;20209;-78
2022/01/05 10:21:36;;;;;;;23.30;13.20;;;;;;;19.94;36.54;94074.44;5069474;28;20201;-78
2022/01/05 10:24:06;;;;;;;21.23;12.70;;;;;;;20.16;36.39;94082.53;5068252;28;20550;-78
2022/01/05 10:26:36;;;;;;;22.00;12.90;;;;;;;20.92;34.96;94067.88;5067353;28;20239;-77
2022/01/05 10:29:08;;;;;;;19.20;12.37;;;;;;;21.59;33.61;94062.72;5066733;28;20232;-77
2022/01/05 10:31:37;;;;;;;27.63;12.40;;;;;;;22.45;32.10;94066.66;5070252;28;20229;-76
2022/01/05 10:34:17;;;;;;;20.48;12.65;;;;;;;23.09;31.43;94065.13;5071415;28;20259;-77
2022/01/05 10:36:47;;;;;;;17.25;11.55;;;;;;;23.28;30.73;94064.84;5071643;28;20290;-77
2022/01/05 10:39:16;;;;;;;23.73;11.77;;;;;;;23.58;30.12;94054.09;5071779;28;20583;-77
2022/01/05 10:41:46;;;;;;;35.97;12.88;;;;;;;24.20;28.82;94056.34;5071763;28;20284;-77
2022/01/05 10:44:21;;;;;;;22.90;12.63;;;;;;;24.70;28.49;94054.56;5070508;28;20868;-77
2022/01/05 10:46:51;;;;;;;20.77;12.07;;;;;;;24.50;28.62;94039.34;5076953;28;20691;-77
2022/01/05 10:49:29;;;;;;;20.05;11.85;;;;;;;25.24;27.49;94036.13;5069818;28;20221;-77
2022/01/05 10:52:02;;;;;;;18.20;12.20;;;;;;;25.46;27.20;94040.34;5070578;28;20205;-77
2022/01/05 10:54:32;;;;;;;21.08;11.60;;;;;;;25.51;27.06;94045.53;5071265;28;20597;-86
2022/01/05 10:57:12;;;;;;;20.70;12.27;;;;;;;25.38;27.13;94039.31;5070801;28;20202;-76
2022/01/05 10:59:44;;;;;;;18.05;11.65;;;;;;;26.01;26.41;94035.47;5071217;28;20677;-75
2022/01/05 11:02:26;;;;;;;19.70;11.90;;;;;;;26.15;26.11;94033.31;5071904;28;20204;-75
2022/01/05 11:04:56;;;;;;;21.00;11.60;;;;;;;25.90;25.99;94029.00;5070288;28;20204;-75
2022/01/05 11:07:24;;;;;;;23.30;12.27;;;;;;;26.09;26.11;94034.59;5071560;28;20267;-75
2022/01/05 11:09:57;;;;;;;18.67;11.95;;;;;;;25.80;26.30;94030.19;5070554;28;20259;-75
2022/01/05 11:12:36;;;;;;;24.02;11.52;;;;;;;25.66;26.49;94021.72;5071604;28;20205;-75
2022/01/05 11:15:24;;;;;;;19.42;10.88;;;;;;;26.16;25.69;94018.91;5071229;28;20223;-77
2022/01/05 11:18:13;;;;;;;18.58;10.77;;;;;;;26.32;25.55;94014.47;5069804;28;20201;-78
2022/01/05 11:20:46;;;;;;;18.90;11.52;;;;;;;26.50;25.10;94007.03;5071884;28;20201;-77
2022/01/05 11:23:16;;;;;;;15.73;10.38;;;;;;;26.62;25.34;94006.25;5072516;28;20632;-77
2022/01/05 11:25:46;;;;;;;26.52;11.30;;;;;;;26.66;24.88;93999.94;5073017;28;20208;-76
2022/01/05 11:28:15;;;;;;;18.88;11.88;;;;;;;26.62;25.49;93995.59;5071833;28;20233;-77
2022/01/05 11:30:46;;;;;;;18.63;11.32;;;;;;;26.62;25.39;93999.03;5071154;28;20241;-77